Weather at Esenboğa International Airport

Public forecast

Using degrees Celsius for public forecast. Weather courtesy of forecast.io.

Current aviation weather report (METAR) for Esenboğa International Airport

Retrieved 2021/04/11 08:50 UTC (17 minutes ago):

LTAC 110850Z VRB02KT 9000 -SN FEW009 BKN030 BKN080 02/M00 Q1017 NOSIG

Aviation forecast (TAF) for Esenboğa International Airport

Retrieved 2021/04/11 06:03 UTC (3 hours ago):

TAF TAF LTAC 110440Z 1106/1206 VRB02KT 9999 SCT040 BKN100 TEMPO 1106/1110 4000 -SN BR BKN030 BKN080 TEMPO 1110/1114 34012KT 2000 SN TEMPO 1202/1206 4000 -SN BR